Time;durP1;ratioP1;P1;durP2;ratioP2;P2;SDS_P1;SDS_P2;PMS_P1;PMS_P2;Temp;Humidity;BMP_temperature;BMP_pressure;BME280_temperature;BME280_humidity;BME280_pressure;Samples;Min_cycle;Max_cycle;Signal;HPM_P1;HPM_P2
2022/07/10 00:00:50;;;;;;;5.63;1.45;;;;;;;14.27;90.97;102734.50;5017210;28;20108;-50
2022/07/10 00:03:15;;;;;;;5.47;1.52;;;;;;;14.23;91.37;102738.47;5016591;28;20107;-50
2022/07/10 00:05:41;;;;;;;5.07;1.60;;;;;;;14.20;91.57;102733.34;5017580;28;20072;-49
2022/07/10 00:08:06;;;;;;;7.20;1.73;;;;;;;14.20;91.35;102729.84;5007224;28;20022;-47
2022/07/10 00:10:33;;;;;;;9.55;1.80;;;;;;;14.13;91.94;102734.91;5012188;28;20025;-50
2022/07/10 00:12:58;;;;;;;10.00;1.92;;;;;;;14.07;92.59;102732.75;5000708;28;20022;-47
2022/07/10 00:15:24;;;;;;;6.55;1.98;;;;;;;14.07;92.17;102720.19;5003626;28;20449;-47
2022/07/10 00:17:49;;;;;;;5.88;1.90;;;;;;;14.11;92.49;102721.59;5016099;28;20217;-49
2022/07/10 00:20:15;;;;;;;8.68;2.25;;;;;;;14.13;92.69;102724.16;4996856;28;20029;-49
2022/07/10 00:22:41;;;;;;;6.85;2.00;;;;;;;14.07;93.00;102719.31;4995227;28;20017;-47
2022/07/10 00:25:10;;;;;;;8.30;1.90;;;;;;;14.11;92.94;102720.78;4995176;28;20532;-50
2022/07/10 00:27:35;;;;;;;7.53;1.90;;;;;;;14.13;94.47;102724.16;4995693;28;20177;-50
2022/07/10 00:30:01;;;;;;;7.25;2.00;;;;;;;14.11;93.96;102724.28;4996928;28;20034;-49
2022/07/10 00:32:26;;;;;;;8.05;2.47;;;;;;;14.09;94.23;102720.06;4996649;28;20418;-51
2022/07/10 00:34:52;;;;;;;7.10;2.22;;;;;;;14.04;94.15;102714.25;4996825;28;20034;-47
2022/07/10 00:37:17;;;;;;;5.38;2.33;;;;;;;14.06;94.39;102715.81;4995931;28;20026;-46
2022/07/10 00:39:43;;;;;;;9.68;2.35;;;;;;;14.09;95.21;102717.38;4995845;28;20022;-48
2022/07/10 00:42:09;;;;;;;14.45;2.25;;;;;;;14.14;95.14;102715.13;4996634;28;20210;-49
2022/07/10 00:44:35;;;;;;;9.68;2.60;;;;;;;14.12;94.50;102706.31;4995551;28;20113;-52
2022/07/10 00:47:00;;;;;;;7.63;2.20;;;;;;;14.13;94.25;102708.88;4996353;28;20022;-49
2022/07/10 00:49:25;;;;;;;6.63;2.03;;;;;;;14.05;94.73;102703.34;4996751;28;20156;-46
2022/07/10 00:51:51;;;;;;;4.40;1.80;;;;;;;13.95;96.45;102707.84;4995440;28;20022;-50
2022/07/10 00:54:17;;;;;;;8.95;2.03;;;;;;;13.90;96.41;102704.72;4996552;28;20014;-47
2022/07/10 00:56:42;;;;;;;4.65;1.80;;;;;;;13.82;97.04;102713.47;4995705;28;20049;-48
2022/07/10 00:59:09;;;;;;;6.70;2.20;;;;;;;13.74;98.08;102702.56;4996509;28;20056;-47
2022/07/10 01:01:35;;;;;;;5.78;1.95;;;;;;;13.60;99.17;102701.94;4995374;28;20545;-48
2022/07/10 01:04:00;;;;;;;6.55;2.00;;;;;;;13.52;100.00;102691.03;4996619;28;20017;-49
2022/07/10 01:06:25;;;;;;;4.35;2.10;;;;;;;13.34;100.00;102690.84;4995563;28;20034;-49
2022/07/10 01:08:51;;;;;;;4.78;2.00;;;;;;;13.29;100.00;102685.00;4995985;28;20412;-50
2022/07/10 01:11:16;;;;;;;6.72;2.00;;;;;;;13.25;100.00;102680.84;4995484;28;20061;-46
2022/07/10 01:13:43;;;;;;;5.60;1.88;;;;;;;13.24;100.00;102671.13;4996391;28;20161;-50
2022/07/10 01:16:09;;;;;;;7.82;1.85;;;;;;;13.22;100.00;102665.88;4996050;28;20053;-50
2022/07/10 01:18:35;;;;;;;5.78;1.90;;;;;;;13.24;100.00;102669.28;4995203;28;20421;-49
2022/07/10 01:21:00;;;;;;;8.70;1.90;;;;;;;13.33;100.00;102672.19;4996166;28;20029;-50
2022/07/10 01:23:25;;;;;;;7.50;1.95;;;;;;;13.31;100.00;102671.44;4995224;28;20411;-50
2022/07/10 01:25:51;;;;;;;8.05;1.90;;;;;;;13.25;100.00;102676.34;4995199;28;20022;-47
2022/07/10 01:28:17;;;;;;;8.52;2.13;;;;;;;13.28;100.00;102674.38;4999334;28;20429;-50
2022/07/10 01:30:43;;;;;;;7.75;2.35;;;;;;;13.24;100.00;102666.59;4999966;28;20061;-48
2022/07/10 01:33:09;;;;;;;6.78;2.15;;;;;;;13.21;100.00;102679.44;4994251;28;20051;-50
2022/07/10 01:35:35;;;;;;;10.10;2.28;;;;;;;13.21;100.00;102679.44;4992040;28;20026;-47
2022/07/10 01:38:00;;;;;;;6.20;1.95;;;;;;;13.22;100.00;102684.66;4999137;28;20065;-47
2022/07/10 01:40:25;;;;;;;5.80;1.60;;;;;;;13.19;100.00;102676.03;4999265;28;20112;-51
2022/07/10 01:42:51;;;;;;;8.90;2.03;;;;;;;13.16;100.00;102677.16;4982165;28;20013;-48
2022/07/10 01:45:17;;;;;;;6.68;2.00;;;;;;;13.18;100.00;102677.00;5000050;28;20184;-46
2022/07/10 01:47:43;;;;;;;6.35;1.88;;;;;;;13.19;100.00;102676.03;4999861;28;20109;-48
2022/07/10 01:50:09;;;;;;;6.88;2.10;;;;;;;13.10;100.00;102683.03;4981775;28;20534;-46
2022/07/10 01:52:35;;;;;;;5.93;1.83;;;;;;;13.07;100.00;102668.06;4998387;28;20030;-49
2022/07/10 01:55:00;;;;;;;7.75;1.88;;;;;;;12.98;100.00;102665.31;4998623;28;20633;-49
2022/07/10 01:57:25;;;;;;;8.52;2.30;;;;;;;12.95;100.00;102663.78;4999503;28;20392;-46
2022/07/10 01:59:51;;;;;;;7.20;2.03;;;;;;;12.96;100.00;102676.19;4999360;28;20036;-48
2022/07/10 02:02:16;;;;;;;9.57;1.90;;;;;;;13.01;100.00;102670.41;4999104;28;21186;-49
2022/07/10 02:04:41;;;;;;;8.93;2.20;;;;;;;13.01;100.00;102667.75;4999222;28;20036;-47
2022/07/10 02:07:08;;;;;;;6.88;2.20;;;;;;;12.99;100.00;102658.97;4998147;28;20435;-46
2022/07/10 02:09:34;;;;;;;9.82;1.70;;;;;;;12.98;100.00;102659.94;4980115;28;20021;-48
2022/07/10 02:11:59;;;;;;;7.93;1.85;;;;;;;13.06;100.00;102657.47;4998685;28;20536;-47
2022/07/10 02:14:24;;;;;;;8.07;2.35;;;;;;;13.03;100.00;102663.09;4999279;28;20520;-47
2022/07/10 02:16:50;;;;;;;11.93;2.20;;;;;;;12.99;100.00;102670.56;4998761;28;20108;-49
2022/07/10 02:19:15;;;;;;;11.95;2.15;;;;;;;12.92;100.00;102664.03;4999263;28;20239;-47
2022/07/10 02:21:41;;;;;;;7.50;1.85;;;;;;;12.82;100.00;102669.31;4998496;28;20026;-47
2022/07/10 02:24:06;;;;;;;11.80;2.35;;;;;;;12.73;100.00;102671.94;4998403;28;20049;-50
2022/07/10 02:26:31;;;;;;;8.00;2.22;;;;;;;12.63;100.00;102664.69;4997697;28;20492;-46
2022/07/10 02:28:56;;;;;;;8.82;2.28;;;;;;;12.60;100.00;102672.13;4998434;28;20093;-49
2022/07/10 02:31:22;;;;;;;9.82;2.30;;;;;;;12.65;100.00;102661.88;4997022;28;20022;-50
2022/07/10 02:33:47;;;;;;;7.60;2.00;;;;;;;12.66;100.00;102661.75;4981517;28;20033;-49
2022/07/10 02:36:12;;;;;;;9.27;2.55;;;;;;;12.68;100.00;102666.97;4997328;28;20161;-49
2022/07/10 02:38:38;;;;;;;9.23;2.40;;;;;;;12.76;100.00;102663.63;4997718;28;20286;-47
2022/07/10 02:41:03;;;;;;;7.05;2.28;;;;;;;12.68;100.00;102657.09;4998022;28;20026;-49
2022/07/10 02:43:28;;;;;;;3.72;2.10;;;;;;;12.74;100.00;102668.28;4997862;28;20014;-49
2022/07/10 02:45:53;;;;;;;6.20;2.17;;;;;;;12.74;100.00;102657.56;4998694;28;20041;-49
2022/07/10 02:48:19;;;;;;;5.68;2.20;;;;;;;12.80;100.00;102657.88;4998142;28;20433;-48
2022/07/10 02:50:44;;;;;;;6.78;2.03;;;;;;;12.80;100.00;102655.19;4998407;28;20342;-51
2022/07/10 02:53:09;;;;;;;10.98;2.25;;;;;;;12.89;100.00;102658.91;4996805;28;20034;-50
2022/07/10 02:55:35;;;;;;;7.65;2.10;;;;;;;12.88;100.00;102650.03;4997881;28;20025;-47
2022/07/10 02:58:00;;;;;;;8.00;2.08;;;;;;;12.96;100.00;102635.94;4998622;28;20121;-48
2022/07/10 03:00:27;;;;;;;4.28;1.67;;;;;;;12.96;100.00;102637.78;4997273;28;20022;-49
2022/07/10 03:02:54;;;;;;;5.43;1.90;;;;;;;12.98;100.00;102639.38;4997913;28;20018;-45
2022/07/10 03:05:19;;;;;;;10.77;2.28;;;;;;;12.95;100.00;102638.75;4998006;28;20022;-46
2022/07/10 03:07:45;;;;;;;5.88;2.13;;;;;;;12.91;100.00;102640.84;4998086;28;20030;-50
2022/07/10 03:10:10;;;;;;;6.47;1.95;;;;;;;12.85;100.00;102641.41;4996391;28;20445;-49
2022/07/10 03:12:36;;;;;;;9.70;2.40;;;;;;;12.76;100.00;102647.53;4998671;28;20260;-50
2022/07/10 03:15:02;;;;;;;6.80;2.00;;;;;;;12.76;100.00;102648.38;4998699;28;20420;-46
2022/07/10 03:17:27;;;;;;;8.75;2.15;;;;;;;12.68;100.00;102653.56;4996768;28;20021;-49
2022/07/10 03:19:53;;;;;;;9.82;2.67;;;;;;;12.65;100.00;102654.66;4997941;28;20622;-49
2022/07/10 03:22:18;;;;;;;8.18;2.15;;;;;;;12.64;100.00;102649.44;4996993;28;20014;-49
2022/07/10 03:24:46;;;;;;;11.38;2.08;;;;;;;12.64;100.00;102644.06;4997056;28;20026;-49
2022/07/10 03:27:11;;;;;;;10.90;2.22;;;;;;;12.67;100.00;102643.81;4997055;28;20050;-49
2022/07/10 03:29:37;;;;;;;7.22;2.20;;;;;;;12.65;100.00;102643.94;4997826;28;20037;-47
2022/07/10 03:32:02;;;;;;;9.18;2.28;;;;;;;12.68;100.00;102637.50;4998183;28;20026;-49
2022/07/10 03:34:28;;;;;;;11.48;2.22;;;;;;;12.67;100.00;102639.28;4983564;28;20556;-49
2022/07/10 03:36:53;;;;;;;6.97;2.42;;;;;;;12.65;100.00;102640.44;4996778;28;20136;-47
2022/07/10 03:39:18;;;;;;;8.05;2.28;;;;;;;12.67;100.00;102633.09;4996857;28;20037;-48
2022/07/10 03:41:44;;;;;;;10.40;2.22;;;;;;;12.71;100.00;102636.38;4997124;28;20112;-47
2022/07/10 03:44:09;;;;;;;9.80;2.65;;;;;;;12.64;100.00;102634.22;4997141;28;20092;-51
2022/07/10 03:46:34;;;;;;;7.82;2.53;;;;;;;12.67;100.00;102639.28;4997521;28;20030;-48
2022/07/10 03:49:00;;;;;;;6.30;2.28;;;;;;;12.68;100.00;102634.81;4997647;28;20334;-48
2022/07/10 03:51:25;;;;;;;8.35;2.13;;;;;;;12.65;100.00;102627.88;4994128;28;20025;-46
2022/07/10 03:53:50;;;;;;;7.32;2.08;;;;;;;12.65;100.00;102635.06;4997137;28;20030;-51
2022/07/10 03:59:00;;;;;;;5.38;1.88;;;;;;;12.73;100.00;102637.06;4998033;28;20382;-47
2022/07/10 04:01:25;;;;;;;4.63;1.98;;;;;;;12.83;100.00;102633.50;4996616;28;20116;-47
2022/07/10 04:03:50;;;;;;;10.60;2.35;;;;;;;12.88;100.00;102627.72;4997208;28;20480;-46
2022/07/10 04:06:16;;;;;;;8.32;2.10;;;;;;;12.98;100.00;102631.31;4996491;28;20108;-46
2022/07/10 04:08:41;;;;;;;11.32;2.00;;;;;;;13.02;100.00;102631.91;4978533;28;20849;-46
2022/07/10 04:11:06;;;;;;;9.93;2.17;;;;;;;13.01;100.00;102632.88;4996427;28;20066;-48
2022/07/10 04:13:31;;;;;;;7.07;2.10;;;;;;;13.05;100.00;102629.81;4995656;28;20125;-47
2022/07/10 04:15:57;;;;;;;7.10;2.35;;;;;;;13.05;100.00;102610.16;4997145;28;20034;-46
2022/07/10 04:18:22;;;;;;;4.57;1.88;;;;;;;13.10;100.00;102609.75;4996335;28;20101;-47
2022/07/10 04:20:47;;;;;;;9.77;2.08;;;;;;;13.11;100.00;102617.69;4996265;28;20029;-47
2022/07/10 04:23:13;;;;;;;5.15;1.88;;;;;;;13.11;100.00;102630.25;4995560;28;20034;-48
2022/07/10 04:25:38;;;;;;;6.82;2.17;;;;;;;13.11;100.00;102628.41;4995771;28;20381;-47
2022/07/10 04:28:03;;;;;;;4.97;1.92;;;;;;;13.20;100.00;102618.69;4996511;28;20099;-48
2022/07/10 04:30:29;;;;;;;5.80;2.00;;;;;;;13.19;100.00;102633.13;4996810;28;20088;-49
2022/07/10 04:32:54;;;;;;;5.32;1.80;;;;;;;13.20;100.00;102624.94;4996481;28;20360;-51
2022/07/10 04:35:19;;;;;;;8.85;2.15;;;;;;;13.22;100.00;102630.13;4996624;28;20026;-50
2022/07/10 04:37:45;;;;;;;8.30;1.95;;;;;;;13.27;100.00;102622.53;4995804;28;20667;-47
2022/07/10 04:40:11;;;;;;;6.68;2.00;;;;;;;13.29;100.00;102628.63;4994289;28;20029;-48
2022/07/10 04:42:36;;;;;;;5.75;1.50;;;;;;;13.31;100.00;102636.56;4997271;28;20080;-46
2022/07/10 04:45:02;;;;;;;7.75;1.85;;;;;;;13.32;100.00;102641.78;4997246;28;20306;-46
2022/07/10 04:47:27;;;;;;;6.30;1.80;;;;;;;13.37;100.00;102636.91;4995957;28;20452;-46
2022/07/10 04:49:52;;;;;;;7.75;2.00;;;;;;;13.41;100.00;102632.94;4996587;28;20087;-69
2022/07/10 04:52:18;;;;;;;4.75;1.90;;;;;;;13.46;100.00;102631.66;4995635;28;20021;-46
2022/07/10 04:54:46;;;;;;;7.22;1.63;;;;;;;13.55;100.00;102623.66;4995879;28;20034;-47
2022/07/10 04:57:11;;;;;;;7.00;1.80;;;;;;;13.57;100.00;102620.84;4988068;28;20101;-46
2022/07/10 04:59:36;;;;;;;5.20;1.90;;;;;;;13.61;100.00;102623.13;4993287;28;20560;-46
2022/07/10 05:02:02;;;;;;;9.63;2.05;;;;;;;13.68;100.00;102633.28;4996300;28;20118;-46
2022/07/10 05:04:27;;;;;;;8.80;1.63;;;;;;;13.72;100.00;102634.72;4996312;28;20024;-47
2022/07/10 05:06:52;;;;;;;6.10;1.88;;;;;;;13.79;100.00;102641.25;4995627;28;20017;-47
2022/07/10 05:09:19;;;;;;;8.52;1.83;;;;;;;13.85;100.00;102642.50;4996088;28;20360;-48
2022/07/10 05:11:45;;;;;;;9.15;1.90;;;;;;;13.97;100.00;102644.13;4995732;28;20101;-47
2022/07/10 05:14:10;;;;;;;5.32;1.83;;;;;;;14.00;100.00;102651.88;4995614;28;20113;-51
2022/07/10 05:16:36;;;;;;;5.10;1.60;;;;;;;14.02;100.00;102649.03;4995536;28;20041;-49
2022/07/10 05:19:01;;;;;;;7.43;1.80;;;;;;;14.00;100.00;102643.81;4996899;28;20128;-49
2022/07/10 05:21:26;;;;;;;6.68;2.00;;;;;;;14.02;100.00;102636.47;4995840;28;20032;-49
2022/07/10 05:23:52;;;;;;;11.02;1.75;;;;;;;14.10;100.00;102633.09;4996282;28;20308;-49
2022/07/10 05:26:18;;;;;;;7.30;1.60;;;;;;;14.13;100.00;102641.69;4995380;28;20032;-48
2022/07/10 05:28:43;;;;;;;14.18;1.88;;;;;;;14.18;100.00;102642.13;4995016;28;20026;-47
2022/07/10 05:31:08;;;;;;;7.78;1.80;;;;;;;14.22;100.00;102639.16;4995560;28;20022;-46
2022/07/10 05:33:33;;;;;;;7.38;1.45;;;;;;;14.32;100.00;102642.69;4995591;28;20030;-47
2022/07/10 05:35:59;;;;;;;5.28;1.58;;;;;;;14.36;100.00;102639.59;4995884;28;20029;-50
2022/07/10 05:38:24;;;;;;;6.25;1.60;;;;;;;14.44;100.00;102648.78;4995733;28;20103;-48
2022/07/10 05:40:50;;;;;;;9.82;1.65;;;;;;;14.52;100.00;102639.00;4977640;28;20025;-49
2022/07/10 05:43:15;;;;;;;6.50;1.25;;;;;;;14.62;100.00;102648.97;4978846;28;20926;-49
2022/07/10 05:45:41;;;;;;;9.05;1.65;;;;;;;14.71;100.00;102645.38;4996234;28;20282;-45
2022/07/10 05:48:06;;;;;;;7.60;1.60;;;;;;;14.79;100.00;102650.06;4992746;28;20080;-47
2022/07/10 05:50:32;;;;;;;8.70;1.48;;;;;;;14.87;100.00;102648.34;4995676;28;20511;-47
2022/07/10 05:52:57;;;;;;;7.35;1.75;;;;;;;14.96;100.00;102646.63;4995968;28;20061;-46
2022/07/10 05:55:23;;;;;;;7.70;1.83;;;;;;;15.03;100.00;102645.03;4995011;28;21051;-48
2022/07/10 05:57:49;;;;;;;6.35;1.30;;;;;;;15.13;100.00;102647.69;4995981;28;20030;-47
2022/07/10 06:00:14;;;;;;;5.30;1.17;;;;;;;15.19;100.00;102643.56;4978072;28;20029;-48
2022/07/10 06:02:40;;;;;;;12.05;1.60;;;;;;;15.27;100.00;102641.84;4994037;28;20021;-47
2022/07/10 06:05:06;;;;;;;6.82;1.25;;;;;;;15.41;100.00;102639.63;4995601;28;20025;-50
2022/07/10 06:07:31;;;;;;;7.82;1.48;;;;;;;15.55;100.00;102633.78;4995041;28;20041;-46
2022/07/10 06:09:57;;;;;;;10.07;1.50;;;;;;;15.71;100.00;102637.66;4994244;28;20605;-49
2022/07/10 06:12:22;;;;;;;4.78;1.15;;;;;;;15.94;100.00;102630.88;4995893;28;20653;-47
2022/07/10 06:14:47;;;;;;;10.40;1.63;;;;;;;16.18;100.00;102640.19;4998652;28;20497;-47
2022/07/10 06:17:12;;;;;;;7.20;1.50;;;;;;;16.35;97.20;102639.31;4998432;28;20021;-47
2022/07/10 06:19:38;;;;;;;7.47;1.40;;;;;;;16.49;96.07;102634.38;4999691;28;20037;-48
2022/07/10 06:24:47;;;;;;;11.75;1.73;;;;;;;16.47;96.24;102637.25;4998330;28;20060;-48
2022/07/10 06:27:12;;;;;;;5.97;1.63;;;;;;;16.67;96.56;102637.06;4998440;28;20674;-47
2022/07/10 06:29:38;;;;;;;12.25;2.45;;;;;;;16.86;94.01;102630.63;4999025;28;20065;-46
2022/07/10 06:32:04;;;;;;;6.55;1.88;;;;;;;17.00;94.14;102635.44;5003238;28;20444;-50
2022/07/10 06:34:29;;;;;;;6.75;1.48;;;;;;;16.91;91.91;102628.31;4990830;28;20034;-46
2022/07/10 06:36:54;;;;;;;8.60;1.52;;;;;;;16.78;92.86;102634.94;4998629;28;20128;-50
2022/07/10 06:39:20;;;;;;;8.80;1.50;;;;;;;16.83;93.42;102639.03;4997488;28;20022;-49
2022/07/10 06:41:45;;;;;;;8.73;1.95;;;;;;;16.88;93.41;102628.63;4998173;28;20532;-47
2022/07/10 06:44:10;;;;;;;8.45;1.40;;;;;;;16.93;91.97;102627.13;4998291;28;20391;-50
2022/07/10 06:46:36;;;;;;;7.78;1.25;;;;;;;16.95;92.00;102635.06;4980440;28;20036;-47
2022/07/10 06:49:01;;;;;;;4.75;1.20;;;;;;;17.12;94.85;102641.41;4981244;28;20083;-46
2022/07/10 06:51:27;;;;;;;10.55;1.63;;;;;;;17.25;92.49;102639.13;4997687;28;20022;-50
2022/07/10 06:53:52;;;;;;;6.22;1.23;;;;;;;17.25;89.49;102638.28;4998315;28;20246;-50
2022/07/10 06:56:18;;;;;;;10.02;1.35;;;;;;;17.11;89.19;102634.34;4996617;28;20037;-45
2022/07/10 06:58:43;;;;;;;12.35;1.52;;;;;;;17.10;90.72;102633.47;4981208;28;20026;-45
2022/07/10 07:01:09;;;;;;;11.30;1.50;;;;;;;17.18;91.44;102635.38;4998078;28;20404;-50
2022/07/10 07:03:34;;;;;;;5.70;1.17;;;;;;;17.22;90.54;102636.75;4997669;28;20030;-49
2022/07/10 07:06:00;;;;;;;8.27;1.38;;;;;;;17.22;92.08;102633.19;4980268;28;20021;-45
2022/07/10 07:08:25;;;;;;;6.63;1.17;;;;;;;17.13;91.69;102637.72;4997554;28;20436;-49
2022/07/10 07:10:50;;;;;;;8.38;1.35;;;;;;;17.03;91.28;102639.69;4997263;28;20041;-46
2022/07/10 07:13:16;;;;;;;10.20;1.35;;;;;;;17.15;92.57;102636.53;4997809;28;20049;-49
2022/07/10 07:15:46;;;;;;;6.45;1.45;;;;;;;17.24;90.46;102642.81;4997377;28;20500;-47
2022/07/10 07:18:15;;;;;;;6.65;1.55;;;;;;;17.24;91.14;102640.13;4997789;28;20316;-49
2022/07/10 07:23:25;;;;;;;10.48;2.05;;;;;;;17.39;88.72;102647.63;4997085;28;20032;-48
2022/07/10 07:25:51;;;;;;;10.40;2.42;;;;;;;17.32;90.11;102647.44;4978659;28;20026;-50
2022/07/10 07:28:18;;;;;;;9.20;2.47;;;;;;;17.32;90.66;102650.97;4997329;28;20042;-49
2022/07/10 07:30:44;;;;;;;8.90;2.10;;;;;;;17.30;89.84;102654.84;4998120;28;20381;-47
2022/07/10 07:33:09;;;;;;;6.45;1.70;;;;;;;17.45;90.19;102649.69;4997268;28;20088;-51
2022/07/10 07:35:34;;;;;;;6.95;1.80;;;;;;;17.57;89.24;102651.06;4996844;28;20030;-50
2022/07/10 07:38:02;;;;;;;13.05;2.20;;;;;;;17.71;89.07;102647.72;4997935;28;20425;-46
2022/07/10 07:40:28;;;;;;;10.52;2.20;;;;;;;17.85;90.02;102643.56;4996844;28;20034;-50
2022/07/10 07:42:55;;;;;;;10.82;1.90;;;;;;;17.93;87.39;102644.63;4996513;28;20370;-49
2022/07/10 07:45:21;;;;;;;9.68;2.05;;;;;;;17.78;86.89;102649.78;4997248;28;20026;-48
2022/07/10 07:47:46;;;;;;;9.55;2.28;;;;;;;17.74;88.22;102640.34;4997809;28;20425;-48
2022/07/10 07:50:18;;;;;;;9.32;2.25;;;;;;;17.74;88.13;102643.88;4996202;28;20018;-51
2022/07/10 07:52:44;;;;;;;7.47;1.65;;;;;;;17.83;88.44;102645.56;4997884;28;20309;-50
2022/07/10 07:55:10;;;;;;;9.45;1.80;;;;;;;17.92;88.38;102637.53;4995548;28;20121;-48
2022/07/10 07:57:36;;;;;;;7.22;1.58;;;;;;;17.98;86.93;102642.28;4996938;28;20129;-50
2022/07/10 08:00:03;;;;;;;9.77;1.33;;;;;;;17.96;87.96;102641.59;4997285;28;20057;-51
2022/07/10 08:02:28;;;;;;;12.30;2.28;;;;;;;18.06;88.26;102642.28;4997277;28;20054;-49
2022/07/10 08:04:54;;;;;;;8.45;1.90;;;;;;;18.06;86.47;102645.84;4997303;28;20504;-50
2022/07/10 08:07:19;;;;;;;8.43;1.80;;;;;;;18.15;87.41;102645.84;4996252;28;20033;-47
2022/07/10 08:09:45;;;;;;;7.90;1.90;;;;;;;18.11;87.26;102644.47;4996103;28;20021;-50
2022/07/10 08:12:10;;;;;;;9.52;2.20;;;;;;;18.01;86.00;102637.38;4996605;28;20418;-48
2022/07/10 08:14:35;;;;;;;9.73;2.22;;;;;;;18.00;87.59;102649.19;5000685;28;20029;-48
2022/07/10 08:17:01;;;;;;;9.57;2.03;;;;;;;18.24;86.55;102647.53;5013468;28;20029;-49
2022/07/10 08:19:26;;;;;;;8.52;2.05;;;;;;;18.32;84.60;102641.28;5014952;28;20036;-49
2022/07/10 08:21:51;;;;;;;8.93;2.05;;;;;;;18.43;84.83;102640.94;5013569;28;20104;-49
2022/07/10 08:24:17;;;;;;;12.05;2.55;;;;;;;18.50;85.11;102641.97;5012932;28;20095;-51
2022/07/10 08:26:42;;;;;;;6.38;2.00;;;;;;;18.49;82.26;102640.28;5011923;28;20112;-48
2022/07/10 08:29:07;;;;;;;8.65;1.80;;;;;;;18.39;84.01;102639.59;5010546;28;20036;-49
2022/07/10 08:31:33;;;;;;;7.35;1.70;;;;;;;18.36;84.61;102643.47;5015335;28;20021;-48
2022/07/10 08:33:59;;;;;;;9.48;1.98;;;;;;;18.30;85.14;102640.63;5012331;28;20448;-49
2022/07/10 08:36:26;;;;;;;7.75;2.00;;;;;;;18.20;85.16;102641.63;5006789;28;20033;-50
2022/07/10 08:38:53;;;;;;;6.72;2.03;;;;;;;18.27;86.20;102636.38;4995883;28;20315;-48
2022/07/10 08:41:24;;;;;;;4.60;1.52;;;;;;;18.22;86.76;102636.88;4995519;28;20530;-50
2022/07/10 08:43:50;;;;;;;9.35;2.00;;;;;;;18.32;86.10;102636.72;4996157;28;20183;-48
2022/07/10 08:46:17;;;;;;;10.57;1.80;;;;;;;18.31;85.11;102642.28;4997691;28;20093;-50
2022/07/10 08:48:48;;;;;;;7.00;1.45;;;;;;;18.30;85.98;102640.63;5012749;28;20535;-51
2022/07/10 08:51:36;;;;;;;8.40;1.60;;;;;;;18.29;86.69;102639.75;5011489;28;20025;-48
2022/07/10 08:54:04;;;;;;;7.03;1.48;;;;;;;18.30;87.44;102638.75;5009825;28;20513;-46
2022/07/10 08:56:30;;;;;;;8.43;1.80;;;;;;;18.34;85.59;102650.09;5010930;28;20028;-48
2022/07/10 08:58:57;;;;;;;5.93;1.80;;;;;;;18.28;84.69;102643.50;4995393;28;20378;-48
2022/07/10 09:01:25;;;;;;;10.82;1.83;;;;;;;18.36;84.39;102651.59;4995027;28;20059;-52
2022/07/10 09:03:51;;;;;;;8.88;1.88;;;;;;;18.49;83.02;102650.25;5002399;28;20133;-49
2022/07/10 09:06:16;;;;;;;7.50;2.40;;;;;;;18.67;83.63;102648.22;5001631;28;20018;-51
2022/07/10 09:09:07;;;;;;;8.55;1.92;;;;;;;18.76;83.74;102651.75;4996068;28;20026;-51
2022/07/10 09:11:33;;;;;;;6.75;1.80;;;;;;;18.47;83.41;102645.00;4995267;28;20026;-49
2022/07/10 09:14:03;;;;;;;5.07;1.67;;;;;;;18.34;85.77;102639.25;4996779;28;20469;-51
2022/07/10 09:16:32;;;;;;;5.85;1.60;;;;;;;18.31;86.69;102639.59;4995482;28;20113;-51
2022/07/10 09:19:13;;;;;;;5.88;1.60;;;;;;;18.41;86.63;102633.03;4995884;28;20499;-51
2022/07/10 09:21:39;;;;;;;6.15;1.52;;;;;;;18.50;86.51;102636.56;5010701;28;20236;-50
2022/07/10 09:24:07;;;;;;;6.35;1.77;;;;;;;18.60;84.41;102629.13;5012998;28;20467;-49
2022/07/10 09:26:33;;;;;;;6.05;1.58;;;;;;;18.85;84.04;102622.84;4997909;28;20053;-50
2022/07/10 09:29:12;;;;;;;9.57;1.73;;;;;;;19.13;83.42;102626.00;4996141;28;20029;-51
2022/07/10 09:31:54;;;;;;;5.22;1.70;;;;;;;19.27;83.07;102625.25;4995731;28;20495;-51
2022/07/10 09:34:48;;;;;;;3.70;1.50;;;;;;;19.53;80.99;102622.22;4982723;28;20433;-48
2022/07/10 09:37:20;;;;;;;5.32;1.75;;;;;;;19.75;79.68;102627.91;5012794;28;20033;-51
2022/07/10 09:39:59;;;;;;;4.90;1.73;;;;;;;19.64;78.33;102617.47;4994477;28;20025;-50
2022/07/10 09:42:56;;;;;;;6.88;1.83;;;;;;;19.50;80.36;102616.31;4995741;28;20041;-49
2022/07/10 09:45:22;;;;;;;11.98;2.38;;;;;;;19.46;81.12;102612.28;4992575;28;20041;-70
2022/07/10 09:48:00;;;;;;;5.65;1.90;;;;;;;19.47;80.59;102617.53;4996844;28;20500;-51
2022/07/10 09:50:33;;;;;;;8.50;2.20;;;;;;;19.65;80.21;102614.53;4987505;28;20512;-50
2022/07/10 09:53:03;;;;;;;5.45;2.33;;;;;;;19.77;76.79;102614.19;4981805;28;20030;-49
2022/07/10 09:55:31;;;;;;;4.80;1.80;;;;;;;20.04;78.24;102615.53;4988058;28;20037;-50
2022/07/10 09:58:02;;;;;;;4.60;1.75;;;;;;;20.08;75.82;102617.69;4998791;28;20064;-50
2022/07/10 10:00:32;;;;;;;8.98;1.90;;;;;;;20.06;76.46;102608.91;4999026;28;20507;-49
2022/07/10 10:03:00;;;;;;;6.05;1.80;;;;;;;20.25;74.54;102609.44;4981528;28;20025;-50
2022/07/10 10:05:38;;;;;;;6.93;1.90;;;;;;;20.56;75.96;102608.50;4998429;28;20026;-49
2022/07/10 10:08:23;;;;;;;5.40;1.50;;;;;;;20.67;74.67;102613.47;4998107;28;20501;-51
2022/07/10 10:10:50;;;;;;;7.07;1.83;;;;;;;20.58;73.33;102607.25;4998446;28;20472;-49
2022/07/10 10:13:27;;;;;;;8.73;1.33;;;;;;;20.37;74.41;102607.13;4985771;28;20254;-50
2022/07/10 10:15:53;;;;;;;4.53;1.48;;;;;;;20.16;73.85;102614.06;4999307;28;20022;-50
2022/07/10 10:18:23;;;;;;;3.55;1.38;;;;;;;20.06;74.24;102600.78;4996888;28;20084;-51
2022/07/10 10:20:49;;;;;;;6.07;1.40;;;;;;;20.26;75.39;102611.13;4998367;28;20543;-51
2022/07/10 10:23:22;;;;;;;5.95;1.45;;;;;;;20.61;73.11;102598.75;4990188;28;20236;-47
2022/07/10 10:25:49;;;;;;;4.40;1.30;;;;;;;20.90;68.80;102602.56;4998697;28;20453;-50
2022/07/10 10:28:16;;;;;;;3.58;1.20;;;;;;;21.24;68.89;102598.41;4998087;28;20046;-50
2022/07/10 10:30:46;;;;;;;4.65;1.30;;;;;;;21.82;72.42;102595.75;4998453;28;20032;-52
2022/07/10 10:33:42;;;;;;;4.43;1.40;;;;;;;21.82;66.59;102600.38;4997982;28;20029;-49
2022/07/10 10:36:08;;;;;;;6.70;1.60;;;;;;;21.61;67.54;102602.03;4979692;28;20218;-48
2022/07/10 10:38:49;;;;;;;4.10;1.30;;;;;;;21.39;68.47;102601.94;4998895;28;20033;-49
2022/07/10 10:41:29;;;;;;;6.38;1.40;;;;;;;21.39;71.17;102591.06;4997457;28;20457;-50
2022/07/10 10:44:06;;;;;;;4.35;1.20;;;;;;;21.46;68.05;102599.31;4998555;28;20037;-50
2022/07/10 10:46:31;;;;;;;3.45;1.25;;;;;;;21.69;68.92;102592.91;4997518;28;20052;-49
2022/07/10 10:49:08;;;;;;;5.30;1.25;;;;;;;21.87;67.04;102595.19;4998236;28;20527;-49
2022/07/10 10:52:09;;;;;;;5.78;1.30;;;;;;;21.91;67.04;102593.75;4980123;28;20143;-50
2022/07/10 10:54:56;;;;;;;4.28;1.60;;;;;;;21.87;67.94;102596.03;4997335;28;20100;-48
2022/07/10 10:57:23;;;;;;;7.15;1.35;;;;;;;21.79;65.85;102583.41;4998266;28;20026;-48
2022/07/10 10:59:55;;;;;;;4.68;1.30;;;;;;;21.82;67.61;102584.88;4997465;28;20041;-49
2022/07/10 11:02:20;;;;;;;5.40;1.20;;;;;;;21.76;64.52;102585.69;4996826;28;20026;-50
2022/07/10 11:04:46;;;;;;;2.30;1.13;;;;;;;21.77;65.24;102582.72;4997129;28;20028;-50
2022/07/10 11:07:11;;;;;;;5.57;1.40;;;;;;;21.86;67.68;102586.19;4997900;28;20084;-48
2022/07/10 11:09:36;;;;;;;6.82;1.50;;;;;;;21.94;66.87;102580.59;4997364;28;20033;-50
2022/07/10 11:12:06;;;;;;;5.25;1.27;;;;;;;21.86;63.47;102579.88;4998192;28;20026;-50
2022/07/10 11:14:39;;;;;;;3.95;1.30;;;;;;;22.12;65.13;102584.75;4994916;28;20026;-50
2022/07/10 11:17:05;;;;;;;4.53;1.35;;;;;;;22.22;65.94;102570.81;4976523;28;20473;-46
2022/07/10 11:19:32;;;;;;;4.68;1.33;;;;;;;22.19;65.55;102577.47;4998501;28;20286;-48
2022/07/10 11:22:10;;;;;;;3.92;1.40;;;;;;;22.16;65.58;102580.59;4997543;28;20279;-47
2022/07/10 11:24:40;;;;;;;3.30;1.15;;;;;;;21.91;64.18;102572.84;4997427;28;20017;-47
2022/07/10 11:27:28;;;;;;;5.38;1.20;;;;;;;22.22;66.29;102577.09;4996055;28;20195;-51